Time;durP1;ratioP1;P1;durP2;ratioP2;P2;SDS_P1;SDS_P2;PMS_P1;PMS_P2;Temp;Humidity;BMP_temperature;BMP_pressure;BME280_temperature;BME280_humidity;BME280_pressure;Samples;Min_cycle;Max_cycle;Signal;HPM_P1;HPM_P2
2023/12/08 00:01:33;;;;;;;16.60;5.97;;;;;;;;;;4940143;28;20193;-57
2023/12/08 00:04:01;;;;;;;14.75;6.00;;;;;;;;;;4913215;28;20055;-60
2023/12/08 00:06:29;;;;;;;16.35;5.75;;;;;;;;;;4916555;28;20059;-58
2023/12/08 00:08:55;;;;;;;15.35;6.63;;;;;;;;;;4930901;28;20066;-59
2023/12/08 00:11:22;;;;;;;16.67;6.75;;;;;;;;;;4930948;29;20113;-57
2023/12/08 00:13:49;;;;;;;13.55;4.57;;;;;;;;;;4912051;29;20055;-60
2023/12/08 00:16:15;;;;;;;14.23;5.53;;;;;;;;;;4935552;28;20060;-62
2023/12/08 00:18:42;;;;;;;16.65;6.78;;;;;;;;;;4943580;28;20131;-57
2023/12/08 00:21:11;;;;;;;16.98;6.45;;;;;;;;;;4922431;28;20055;-55
2023/12/08 00:23:37;;;;;;;13.10;5.65;;;;;;;;;;4945275;28;20051;-61
2023/12/08 00:26:04;;;;;;;17.92;6.88;;;;;;;;;;4930764;28;20067;-60
2023/12/08 00:28:31;;;;;;;19.98;7.28;;;;;;;;;;4925644;28;20074;-57
2023/12/08 00:30:57;;;;;;;14.18;4.75;;;;;;;;;;4957814;28;20043;-57
2023/12/08 00:33:23;;;;;;;19.10;6.72;;;;;;;;;;4945794;28;20126;-62
2023/12/08 00:35:50;;;;;;;14.98;5.97;;;;;;;;;;4933984;28;20063;-60
2023/12/08 00:38:18;;;;;;;15.13;5.78;;;;;;;;;;4926887;28;20158;-62
2023/12/08 00:40:45;;;;;;;16.15;6.50;;;;;;;;;;4911064;29;20055;-62
2023/12/08 00:43:12;;;;;;;8.40;3.83;;;;;;;;;;4947967;28;21044;-60
2023/12/08 00:45:38;;;;;;;17.20;5.85;;;;;;;;;;4940829;28;20075;-57
2023/12/08 00:48:06;;;;;;;17.02;6.85;;;;;;;;;;4923474;28;20173;-63
2023/12/08 00:50:32;;;;;;;15.45;5.63;;;;;;;;;;4933439;28;20083;-57
2023/12/08 00:52:59;;;;;;;15.18;5.97;;;;;;;;;;4927659;28;20078;-60
2023/12/08 00:55:27;;;;;;;12.68;5.43;;;;;;;;;;4941492;28;20066;-56
2023/12/08 00:57:53;;;;;;;13.00;5.57;;;;;;;;;;4952578;28;20138;-61
2023/12/08 01:00:20;;;;;;;32.13;13.25;;;;;;;;;;4949886;28;20078;-59
2023/12/08 01:02:47;;;;;;;12.63;4.07;;;;;;;;;;4939290;28;20062;-61
2023/12/08 01:05:14;;;;;;;26.15;10.40;;;;;;;;;;4949063;28;20055;-58
2023/12/08 01:07:40;;;;;;;22.20;7.15;;;;;;;;;;4932149;28;20130;-57
2023/12/08 01:10:08;;;;;;;13.63;5.57;;;;;;;;;;4975045;28;20078;-62
2023/12/08 01:12:36;;;;;;;16.95;6.15;;;;;;;;;;4963485;28;20066;-58
2023/12/08 01:15:03;;;;;;;12.63;4.85;;;;;;;;;;4959476;28;20059;-61
2023/12/08 01:17:29;;;;;;;11.60;5.68;;;;;;;;;;4959883;28;20112;-56
2023/12/08 01:19:56;;;;;;;14.10;5.90;;;;;;;;;;4944536;28;20148;-63
2023/12/08 01:22:27;;;;;;;12.70;4.95;;;;;;;;;;4954699;28;20078;-60
2023/12/08 01:24:54;;;;;;;10.93;4.78;;;;;;;;;;4937846;28;20059;-62
2023/12/08 01:27:20;;;;;;;18.52;5.75;;;;;;;;;;4938176;28;20059;-58
2023/12/08 01:29:49;;;;;;;13.35;5.97;;;;;;;;;;4977843;28;20055;-58
2023/12/08 01:32:17;;;;;;;16.50;5.57;;;;;;;;;;4974156;28;20051;-60
2023/12/08 01:34:44;;;;;;;12.45;4.70;;;;;;;;;;4955117;28;20066;-58
2023/12/08 01:37:10;;;;;;;16.75;6.05;;;;;;;;;;4952768;28;20061;-60
2023/12/08 01:39:37;;;;;;;19.58;5.18;;;;;;;;;;4967646;28;20135;-59
2023/12/08 01:42:04;;;;;;;17.10;5.63;;;;;;;;;;4976295;28;20054;-55
2023/12/08 01:44:31;;;;;;;13.05;5.18;;;;;;;;;;4948987;28;20134;-60
2023/12/08 01:46:59;;;;;;;15.93;5.80;;;;;;;;;;4943635;28;20063;-58
2023/12/08 01:49:26;;;;;;;13.63;5.38;;;;;;;;;;4960528;28;20066;-58
2023/12/08 01:51:53;;;;;;;14.15;5.38;;;;;;;;;;4946809;28;20063;-56
2023/12/08 01:54:19;;;;;;;15.60;6.05;;;;;;;;;;4969851;28;20058;-55
2023/12/08 01:56:46;;;;;;;12.38;5.40;;;;;;;;;;4931481;28;20419;-61
2023/12/08 01:59:14;;;;;;;12.88;5.38;;;;;;;;;;4956757;28;20059;-61
2023/12/08 02:01:41;;;;;;;11.65;5.05;;;;;;;;;;4944225;28;20055;-57
2023/12/08 02:04:09;;;;;;;13.68;4.93;;;;;;;;;;4964840;28;20134;-58
2023/12/08 02:06:36;;;;;;;11.43;4.80;;;;;;;;;;4939651;28;20067;-59
2023/12/08 02:09:03;;;;;;;12.55;5.13;;;;;;;;;;4930787;28;20063;-61
2023/12/08 02:11:30;;;;;;;13.63;5.95;;;;;;;;;;4922997;29;20063;-56
2023/12/08 02:13:57;;;;;;;13.07;4.65;;;;;;;;;;4942867;28;20117;-57
2023/12/08 02:16:28;;;;;;;17.05;6.20;;;;;;;;;;4925300;28;20175;-55
2023/12/08 02:18:56;;;;;;;12.27;4.47;;;;;;;;;;4946510;28;20043;-53
2023/12/08 02:21:25;;;;;;;12.20;5.10;;;;;;;;;;4941489;28;20055;-59
2023/12/08 02:23:53;;;;;;;16.38;5.13;;;;;;;;;;4916703;29;20128;-58
2023/12/08 02:26:21;;;;;;;12.50;5.40;;;;;;;;;;4920085;28;20052;-53
2023/12/08 02:28:48;;;;;;;9.55;4.25;;;;;;;;;;4952718;28;20054;-58
2023/12/08 02:31:18;;;;;;;15.48;4.68;;;;;;;;;;4932670;28;20063;-60
2023/12/08 02:33:46;;;;;;;10.75;5.07;;;;;;;;;;4952288;28;20087;-59
2023/12/08 02:36:16;;;;;;;12.43;5.28;;;;;;;;;;4940246;28;20123;-60
2023/12/08 02:38:44;;;;;;;13.98;4.65;;;;;;;;;;4946815;28;20043;-62
2023/12/08 02:41:12;;;;;;;15.73;4.80;;;;;;;;;;4937201;28;20070;-63
2023/12/08 02:43:38;;;;;;;11.20;4.88;;;;;;;;;;4958665;28;20055;-55
2023/12/08 02:46:05;;;;;;;13.65;4.53;;;;;;;;;;4929307;28;20070;-59
2023/12/08 02:48:32;;;;;;;12.82;5.35;;;;;;;;;;4930609;28;20055;-63
2023/12/08 02:50:58;;;;;;;14.07;5.20;;;;;;;;;;4937174;28;20056;-58
2023/12/08 02:53:25;;;;;;;12.23;5.05;;;;;;;;;;4913768;28;20076;-60
2023/12/08 02:55:51;;;;;;;9.50;3.97;;;;;;;;;;4941556;28;20063;-58
2023/12/08 02:58:19;;;;;;;10.77;4.63;;;;;;;;;;4930953;28;20070;-57
2023/12/08 03:00:46;;;;;;;15.43;5.45;;;;;;;;;;4919817;28;20062;-60
2023/12/08 03:03:13;;;;;;;12.68;5.00;;;;;;;;;;4912028;28;20058;-61
2023/12/08 03:05:40;;;;;;;11.68;4.65;;;;;;;;;;4953324;28;20070;-62
2023/12/08 03:08:06;;;;;;;13.05;5.20;;;;;;;;;;4958841;28;20150;-59
2023/12/08 03:10:33;;;;;;;13.77;5.55;;;;;;;;;;4956057;28;20054;-60
2023/12/08 03:12:59;;;;;;;9.68;4.40;;;;;;;;;;4953262;28;20069;-62
2023/12/08 03:15:28;;;;;;;11.68;5.07;;;;;;;;;;4955506;28;20142;-60
2023/12/08 03:17:54;;;;;;;10.63;4.97;;;;;;;;;;4940550;28;20067;-56
2023/12/08 03:20:21;;;;;;;12.50;4.97;;;;;;;;;;4947732;28;20066;-58
2023/12/08 03:22:47;;;;;;;13.35;5.38;;;;;;;;;;4947114;28;20070;-61
2023/12/08 03:25:14;;;;;;;13.38;5.43;;;;;;;;;;4958868;28;20058;-62
2023/12/08 03:27:41;;;;;;;13.05;5.55;;;;;;;;;;4964832;28;20085;-57
2023/12/08 03:30:09;;;;;;;11.50;5.60;;;;;;;;;;4959717;28;20234;-60
2023/12/08 03:32:39;;;;;;;16.50;5.18;;;;;;;;;;4954390;28;20059;-62
2023/12/08 03:35:06;;;;;;;10.32;4.78;;;;;;;;;;4942972;28;20063;-58
2023/12/08 03:37:33;;;;;;;15.63;6.10;;;;;;;;;;4953358;28;20061;-61
2023/12/08 03:40:00;;;;;;;14.15;5.28;;;;;;;;;;4957502;28;20054;-63
2023/12/08 03:42:26;;;;;;;10.20;4.75;;;;;;;;;;4938738;28;20066;-62
2023/12/08 03:44:53;;;;;;;12.68;5.05;;;;;;;;;;4976718;28;20106;-61
2023/12/08 03:47:22;;;;;;;13.30;5.10;;;;;;;;;;4952013;28;20133;-54
2023/12/08 03:49:50;;;;;;;9.18;3.58;;;;;;;;;;4972161;28;20059;-59
2023/12/08 03:52:16;;;;;;;11.77;5.03;;;;;;;;;;4945876;28;20075;-61
2023/12/08 03:54:43;;;;;;;11.65;4.45;;;;;;;;;;4968162;28;20050;-62
2023/12/08 03:57:09;;;;;;;13.00;4.97;;;;;;;;;;4942515;28;20055;-59
2023/12/08 03:59:36;;;;;;;12.00;5.00;;;;;;;;;;4969844;28;20138;-61
2023/12/08 04:02:03;;;;;;;11.68;5.10;;;;;;;;;;4959581;28;20157;-63
2023/12/08 04:04:30;;;;;;;11.00;4.57;;;;;;;;;;4976705;28;20093;-61
2023/12/08 04:06:58;;;;;;;13.27;5.22;;;;;;;;;;4965839;28;20119;-60
2023/12/08 04:09:25;;;;;;;13.13;5.63;;;;;;;;;;4955852;28;20087;-63
2023/12/08 04:11:51;;;;;;;13.70;5.10;;;;;;;;;;4946692;28;20073;-63
2023/12/08 04:14:18;;;;;;;9.90;4.20;;;;;;;;;;4957993;28;20082;-61
2023/12/08 04:16:44;;;;;;;11.82;5.40;;;;;;;;;;4958459;28;20141;-62
2023/12/08 04:19:12;;;;;;;15.15;5.40;;;;;;;;;;4945194;28;20295;-60
2023/12/08 04:21:39;;;;;;;11.63;5.03;;;;;;;;;;4934820;28;20055;-60
2023/12/08 04:24:07;;;;;;;9.75;4.30;;;;;;;;;;4972918;28;20138;-60
2023/12/08 04:26:34;;;;;;;11.88;4.68;;;;;;;;;;4963989;28;20431;-62
2023/12/08 04:29:00;;;;;;;14.13;5.43;;;;;;;;;;4964012;28;20146;-60
2023/12/08 04:31:27;;;;;;;15.55;5.85;;;;;;;;;;4962321;28;20157;-63
2023/12/08 04:33:54;;;;;;;14.07;5.45;;;;;;;;;;4943760;28;20089;-59
2023/12/08 04:36:20;;;;;;;12.30;5.28;;;;;;;;;;4969404;28;20039;-62
2023/12/08 04:38:47;;;;;;;11.75;5.68;;;;;;;;;;4964494;28;20055;-61
2023/12/08 04:41:15;;;;;;;12.88;4.97;;;;;;;;;;4953699;28;20090;-60
2023/12/08 04:43:41;;;;;;;13.45;5.68;;;;;;;;;;4960013;28;20058;-61
2023/12/08 04:46:08;;;;;;;14.85;6.00;;;;;;;;;;4969180;28;20110;-59
2023/12/08 04:48:34;;;;;;;13.43;5.47;;;;;;;;;;4971943;28;20051;-60
2023/12/08 04:51:02;;;;;;;12.60;5.20;;;;;;;;;;4946981;28;20125;-63
2023/12/08 04:53:29;;;;;;;13.25;5.22;;;;;;;;;;4959237;28;20232;-62
2023/12/08 04:55:55;;;;;;;9.82;4.60;;;;;;;;;;4962758;28;21241;-61
2023/12/08 04:58:23;;;;;;;13.95;5.72;;;;;;;;;;4962579;28;20055;-57
2023/12/08 05:00:50;;;;;;;14.23;5.97;;;;;;;;;;4973608;28;20051;-60
2023/12/08 05:03:17;;;;;;;12.07;5.03;;;;;;;;;;4957060;28;20043;-60
2023/12/08 05:05:44;;;;;;;11.57;4.88;;;;;;;;;;4935951;28;20063;-62
2023/12/08 05:08:11;;;;;;;14.65;4.85;;;;;;;;;;4959323;28;20067;-61
2023/12/08 05:10:38;;;;;;;14.02;5.40;;;;;;;;;;4945152;28;20062;-62
2023/12/08 05:13:04;;;;;;;15.23;5.55;;;;;;;;;;4947513;28;20051;-63
2023/12/08 05:15:33;;;;;;;13.45;5.50;;;;;;;;;;4947087;28;20135;-59
2023/12/08 05:17:59;;;;;;;12.40;5.22;;;;;;;;;;4947423;28;20123;-58
2023/12/08 05:20:26;;;;;;;13.57;5.55;;;;;;;;;;4935674;28;20075;-59
2023/12/08 05:22:53;;;;;;;14.05;5.43;;;;;;;;;;4929811;28;20067;-60
2023/12/08 05:25:20;;;;;;;17.20;5.68;;;;;;;;;;4947486;28;20063;-61
2023/12/08 05:27:46;;;;;;;12.20;6.00;;;;;;;;;;4922062;28;20055;-59
2023/12/08 05:30:13;;;;;;;14.88;6.10;;;;;;;;;;4929152;28;20110;-60
2023/12/08 05:32:41;;;;;;;12.07;5.13;;;;;;;;;;4955383;28;20142;-61
2023/12/08 05:35:09;;;;;;;14.27;5.55;;;;;;;;;;4940303;28;20123;-59
2023/12/08 05:37:35;;;;;;;11.60;4.82;;;;;;;;;;4911602;28;20118;-60
2023/12/08 05:40:03;;;;;;;17.42;5.53;;;;;;;;;;4940921;28;20078;-59
2023/12/08 05:42:29;;;;;;;15.13;5.53;;;;;;;;;;4935373;28;20059;-63
2023/12/08 05:44:56;;;;;;;13.90;5.88;;;;;;;;;;4927016;28;20083;-59
2023/12/08 05:47:23;;;;;;;19.92;7.60;;;;;;;;;;4938909;28;20052;-64
2023/12/08 05:49:51;;;;;;;16.38;6.22;;;;;;;;;;4941264;28;20091;-62
2023/12/08 05:52:19;;;;;;;14.90;6.05;;;;;;;;;;4929821;28;20255;-61
2023/12/08 05:54:45;;;;;;;20.50;6.45;;;;;;;;;;4942552;28;20044;-61
2023/12/08 05:57:12;;;;;;;19.70;5.93;;;;;;;;;;4925308;28;20067;-64
2023/12/08 05:59:39;;;;;;;13.82;6.32;;;;;;;;;;4926147;28;20071;-60
2023/12/08 06:02:05;;;;;;;15.20;5.55;;;;;;;;;;4935836;28;20186;-60
2023/12/08 06:04:32;;;;;;;13.77;5.63;;;;;;;;;;4936266;28;20057;-62
2023/12/08 06:07:00;;;;;;;14.85;6.28;;;;;;;;;;4937229;28;20158;-59
2023/12/08 06:09:26;;;;;;;14.82;5.88;;;;;;;;;;4934089;28;20055;-61
2023/12/08 06:11:53;;;;;;;15.90;5.78;;;;;;;;;;4938696;28;20065;-61
2023/12/08 06:14:19;;;;;;;14.95;6.63;;;;;;;;;;4925373;28;20103;-56
2023/12/08 06:16:46;;;;;;;15.43;6.22;;;;;;;;;;4943699;28;20083;-61
2023/12/08 06:19:13;;;;;;;14.30;6.22;;;;;;;;;;4945847;28;20067;-60
2023/12/08 06:21:39;;;;;;;15.82;5.80;;;;;;;;;;4917140;28;20130;-63
2023/12/08 06:24:08;;;;;;;15.15;6.97;;;;;;;;;;4950770;28;20079;-61
2023/12/08 06:26:34;;;;;;;13.20;5.80;;;;;;;;;;4949373;28;20122;-63
2023/12/08 06:29:01;;;;;;;14.60;4.00;;;;;;;;;;4949012;28;20059;-61
2023/12/08 06:31:28;;;;;;;12.77;5.65;;;;;;;;;;4912715;28;20083;-61
2023/12/08 06:33:54;;;;;;;16.67;6.13;;;;;;;;;;4932326;28;20087;-63
2023/12/08 06:36:21;;;;;;;15.13;6.43;;;;;;;;;;4936372;28;20115;-61
2023/12/08 06:38:48;;;;;;;16.45;6.63;;;;;;;;;;4938552;28;20115;-62
2023/12/08 06:41:16;;;;;;;19.33;6.63;;;;;;;;;;4932574;28;20059;-61
2023/12/08 06:43:42;;;;;;;16.38;5.82;;;;;;;;;;4926527;28;20051;-61
2023/12/08 06:46:09;;;;;;;13.35;5.22;;;;;;;;;;4939597;28;20055;-61
2023/12/08 06:48:36;;;;;;;12.00;5.30;;;;;;;;;;4942047;28;20051;-60
2023/12/08 06:51:03;;;;;;;14.75;6.00;;;;;;;;;;4934974;28;20059;-60
2023/12/08 06:53:30;;;;;;;15.98;6.10;;;;;;;;;;4930396;28;20060;-60
2023/12/08 06:55:59;;;;;;;14.05;5.78;;;;;;;;;;4905338;28;20056;-63
2023/12/08 06:58:27;;;;;;;15.48;5.60;;;;;;;;;;4946330;28;20131;-59
2023/12/08 07:00:54;;;;;;;16.13;6.40;;;;;;;;;;4936152;28;20055;-62
2023/12/08 07:03:21;;;;;;;22.02;8.45;;;;;;;;;;4943252;28;20122;-62
2023/12/08 07:05:48;;;;;;;18.25;7.93;;;;;;;;;;4933090;28;20086;-61
2023/12/08 07:08:15;;;;;;;16.55;6.28;;;;;;;;;;4958546;28;20082;-59
2023/12/08 07:10:41;;;;;;;15.60;5.88;;;;;;;;;;4957876;28;20074;-60
2023/12/08 07:13:08;;;;;;;13.38;5.30;;;;;;;;;;4979714;28;20056;-61
2023/12/08 07:15:36;;;;;;;14.63;6.35;;;;;;;;;;4959854;28;20057;-61
2023/12/08 07:18:03;;;;;;;15.88;6.50;;;;;;;;;;4952846;28;20109;-62
2023/12/08 07:20:30;;;;;;;8.50;3.53;;;;;;;;;;4948604;28;20145;-59
2023/12/08 07:22:57;;;;;;;13.73;5.55;;;;;;;;;;4931792;28;20058;-57
2023/12/08 07:25:25;;;;;;;15.55;5.63;;;;;;;;;;4940522;28;20099;-60
2023/12/08 07:27:55;;;;;;;12.60;5.07;;;;;;;;;;4955481;28;20054;-59
2023/12/08 07:30:21;;;;;;;14.45;6.10;;;;;;;;;;4954143;28;20138;-60
2023/12/08 07:32:50;;;;;;;17.70;7.43;;;;;;;;;;4950858;28;20050;-60
2023/12/08 07:35:17;;;;;;;;;;;;;;;;;;4952223;28;20135;-57
2023/12/08 07:37:43;;;;;;;11.10;4.43;;;;;;;;;;4947820;28;19926;-55
2023/12/08 07:40:11;;;;;;;14.77;5.72;;;;;;;;;;4938641;28;20119;-63
2023/12/08 07:42:38;;;;;;;13.50;5.43;;;;;;;;;;4945873;28;20059;-62
2023/12/08 07:45:06;;;;;;;12.82;5.82;;;;;;;;;;4942426;28;20170;-58
2023/12/08 07:47:35;;;;;;;9.83;4.27;;;;;;;;;;4951660;28;20079;-63
2023/12/08 07:50:09;;;;;;;22.02;6.25;;;;;;;;;;4959114;28;20055;-59
2023/12/08 07:52:41;;;;;;;14.82;5.15;;;;;;;;;;4948844;28;20144;-66
2023/12/08 07:55:09;;;;;;;14.85;6.40;;;;;;;;;;4947399;28;20070;-64
2023/12/08 07:57:40;;;;;;;17.15;6.15;;;;;;;;;;4953538;28;20130;-64
2023/12/08 08:00:10;;;;;;;15.40;5.65;;;;;;;;;;4957014;28;20066;-65
2023/12/08 08:02:37;;;;;;;18.52;6.82;;;;;;;;;;4960470;28;20130;-58
2023/12/08 08:05:05;;;;;;;15.73;5.85;;;;;;;;;;4983893;28;20145;-62
2023/12/08 08:07:32;;;;;;;12.10;5.22;;;;;;;;;;4957039;28;20082;-65
2023/12/08 08:09:59;;;;;;;13.85;5.65;;;;;;;;;;4974984;28;20059;-64
2023/12/08 08:12:26;;;;;;;15.10;5.93;;;;;;;;;;4941033;28;20142;-62
2023/12/08 08:14:52;;;;;;;14.55;5.57;;;;;;;;;;4954432;28;20055;-63
2023/12/08 08:17:19;;;;;;;17.20;5.72;;;;;;;;;;4957002;28;20082;-61
2023/12/08 08:19:59;;;;;;;15.30;6.10;;;;;;;;;;4960406;28;20078;-61
2023/12/08 08:22:27;;;;;;;13.45;5.45;;;;;;;;;;4920961;28;20062;-61
2023/12/08 08:24:53;;;;;;;16.67;6.22;;;;;;;;;;4955877;28;20125;-64
2023/12/08 08:27:21;;;;;;;16.23;6.00;;;;;;;;;;4956713;28;20055;-64
2023/12/08 08:29:48;;;;;;;15.33;6.90;;;;;;;;;;4972915;28;20055;-59
2023/12/08 08:32:17;;;;;;;15.82;5.72;;;;;;;;;;4961731;28;20294;-64
2023/12/08 08:34:44;;;;;;;17.15;6.07;;;;;;;;;;4957126;28;20078;-65
2023/12/08 08:37:11;;;;;;;15.25;5.88;;;;;;;;;;4950276;28;20078;-62
2023/12/08 08:39:41;;;;;;;14.60;5.75;;;;;;;;;;4936210;28;20150;-59
2023/12/08 08:42:08;;;;;;;12.65;5.70;;;;;;;;;;4935691;28;20066;-62
2023/12/08 08:44:36;;;;;;;13.52;5.68;;;;;;;;;;4983488;28;20066;-62
2023/12/08 08:47:04;;;;;;;15.60;6.35;;;;;;;;;;4942674;28;20061;-61
2023/12/08 08:49:32;;;;;;;14.38;5.50;;;;;;;;;;4937395;28;20078;-64
2023/12/08 08:51:59;;;;;;;18.67;6.75;;;;;;;;;;4956189;28;20123;-63
2023/12/08 08:54:26;;;;;;;15.00;5.32;;;;;;;;;;4972029;28;20157;-64
2023/12/08 08:56:56;;;;;;;11.77;5.10;;;;;;;;;;4963201;28;20098;-63
2023/12/08 08:59:23;;;;;;;13.38;5.03;;;;;;;;;;4945092;28;20055;-65
2023/12/08 09:01:50;;;;;;;15.95;5.78;;;;;;;;;;4938749;28;20134;-61
2023/12/08 09:04:16;;;;;;;22.50;5.75;;;;;;;;;;4948356;28;20058;-64
2023/12/08 09:06:43;;;;;;;12.10;5.35;;;;;;;;;;4963666;28;20063;-63
2023/12/08 09:09:11;;;;;;;12.75;4.78;;;;;;;;;;4955224;28;20059;-59
2023/12/08 09:11:38;;;;;;;13.70;6.18;;;;;;;;;;4945726;28;20074;-62
2023/12/08 09:14:06;;;;;;;15.60;5.70;;;;;;;;;;4977560;28;20058;-63
2023/12/08 09:16:35;;;;;;;18.58;5.88;;;;;;;;;;4967948;28;20094;-62
2023/12/08 09:19:03;;;;;;;15.77;5.53;;;;;;;;;;4961369;28;20179;-59
2023/12/08 09:21:32;;;;;;;14.65;6.22;;;;;;;;;;4942197;28;20059;-61
2023/12/08 09:23:59;;;;;;;13.73;5.75;;;;;;;;;;4965745;28;20055;-63
2023/12/08 09:26:25;;;;;;;12.82;5.22;;;;;;;;;;4941825;28;20126;-60
2023/12/08 09:28:52;;;;;;;16.05;5.18;;;;;;;;;;4958854;28;20054;-62
2023/12/08 09:31:23;;;;;;;15.27;5.68;;;;;;;;;;4943774;28;20117;-61
2023/12/08 09:33:49;;;;;;;14.73;5.40;;;;;;;;;;4938034;28;20071;-63
2023/12/08 09:36:16;;;;;;;15.55;5.97;;;;;;;;;;4973712;28;20109;-61
2023/12/08 09:38:43;;;;;;;17.38;5.90;;;;;;;;;;4954665;28;20059;-60
2023/12/08 09:41:13;;;;;;;16.00;5.72;;;;;;;;;;4949408;28;20091;-63
2023/12/08 09:43:55;;;;;;;15.65;6.05;;;;;;;;;;4943666;28;20058;-63
2023/12/08 09:46:24;;;;;;;16.08;5.85;;;;;;;;;;4967331;28;20063;-60
2023/12/08 09:48:54;;;;;;;17.38;5.57;;;;;;;;;;4940225;28;20051;-61
2023/12/08 09:51:21;;;;;;;22.00;6.25;;;;;;;;;;4924872;28;20062;-58
2023/12/08 09:53:49;;;;;;;13.73;5.22;;;;;;;;;;4948728;28;20054;-57
2023/12/08 09:56:18;;;;;;;14.23;5.63;;;;;;;;;;4967200;28;20150;-58
2023/12/08 09:58:45;;;;;;;20.25;6.55;;;;;;;;;;4958527;28;20059;-60
2023/12/08 10:01:16;;;;;;;13.65;5.85;;;;;;;;;;4964914;28;20063;-63
2023/12/08 10:03:45;;;;;;;16.55;5.68;;;;;;;;;;4965074;28;20055;-59
2023/12/08 10:06:12;;;;;;;18.95;5.82;;;;;;;;;;4966129;28;20051;-58
2023/12/08 10:08:38;;;;;;;16.88;5.85;;;;;;;;;;4977249;28;20055;-61
2023/12/08 10:11:06;;;;;;;18.17;6.22;;;;;;;;;;4955996;28;20133;-61
2023/12/08 10:13:32;;;;;;;14.32;5.70;;;;;;;;;;4937327;28;20059;-61
2023/12/08 10:16:00;;;;;;;16.02;6.07;;;;;;;;;;4969306;28;20068;-61
2023/12/08 10:18:28;;;;;;;23.48;6.55;;;;;;;;;;4955440;28;20087;-59
2023/12/08 10:21:15;;;;;;;16.98;5.85;;;;;;;;;;4942342;28;20054;-63
2023/12/08 10:23:42;;;;;;;17.60;6.80;;;;;;;;;;4953272;28;20085;-62
2023/12/08 10:26:12;;;;;;;22.70;8.27;;;;;;;;;;4973151;28;20106;-58
2023/12/08 10:28:42;;;;;;;20.38;7.75;;;;;;;;;;4944239;28;20090;-62
2023/12/08 10:31:11;;;;;;;20.42;6.95;;;;;;;;;;4971884;28;20051;-60
2023/12/08 10:33:37;;;;;;;;;;;;;;;;;;4940836;28;20532;-60
2023/12/08 10:36:05;;;;;;;19.95;7.15;;;;;;;;;;4982899;28;19926;-60
2023/12/08 10:38:34;;;;;;;26.60;8.57;;;;;;;;;;4959736;28;20114;-59
2023/12/08 10:41:00;;;;;;;;;;;;;;;;;;4956908;28;20093;-57
2023/12/08 10:43:27;;;;;;;18.15;6.88;;;;;;;;;;4939554;28;19984;-61
2023/12/08 10:45:57;;;;;;;28.92;9.40;;;;;;;;;;4968817;28;20063;-58
2023/12/08 10:48:24;;;;;;;21.92;7.40;;;;;;;;;;4952596;28;20122;-58
2023/12/08 10:50:53;;;;;;;30.48;10.38;;;;;;;;;;4962925;28;20083;-60
2023/12/08 10:53:21;;;;;;;24.85;8.82;;;;;;;;;;4951890;28;20117;-59
2023/12/08 10:55:53;;;;;;;24.20;7.85;;;;;;;;;;4936688;28;20154;-64
2023/12/08 10:58:22;;;;;;;28.88;8.18;;;;;;;;;;4955066;28;20055;-57
2023/12/08 11:00:51;;;;;;;26.70;9.48;;;;;;;;;;4958363;28;20090;-60
2023/12/08 11:03:21;;;;;;;28.30;9.98;;;;;;;;;;4958248;28;20062;-59
2023/12/08 11:05:56;;;;;;;30.27;9.32;;;;;;;;;;4950199;28;20130;-56
2023/12/08 11:08:23;;;;;;;34.10;10.75;;;;;;;;;;4957623;28;20047;-58
2023/12/08 11:10:56;;;;;;;30.20;8.73;;;;;;;;;;4946430;28;20054;-60
2023/12/08 11:13:27;;;;;;;24.83;9.25;;;;;;;;;;4946300;28;20055;-60
2023/12/08 11:16:11;;;;;;;29.27;9.95;;;;;;;;;;4966074;28;20197;-61
2023/12/08 11:18:39;;;;;;;32.45;10.45;;;;;;;;;;4964576;28;20082;-60
2023/12/08 11:21:07;;;;;;;26.55;10.05;;;;;;;;;;4979501;28;20055;-60
2023/12/08 11:23:35;;;;;;;;;;;;;;;;;;4951777;28;20054;-63
2023/12/08 11:26:12;;;;;;;20.52;8.02;;;;;;;;;;4959178;28;19957;-60
2023/12/08 11:28:51;;;;;;;20.60;7.60;;;;;;;;;;4940912;28;20055;-61
2023/12/08 11:31:24;;;;;;;21.85;8.27;;;;;;;;;;4947249;28;20082;-61
2023/12/08 11:33:57;;;;;;;26.27;9.55;;;;;;;;;;4956487;28;20051;-63
2023/12/08 11:36:28;;;;;;;27.67;9.35;;;;;;;;;;4941643;28;20091;-64
2023/12/08 11:38:55;;;;;;;22.48;8.50;;;;;;;;;;4942176;28;20055;-64
2023/12/08 11:41:24;;;;;;;24.33;8.95;;;;;;;;;;4954151;28;20145;-62
2023/12/08 11:43:52;;;;;;;26.33;8.80;;;;;;;;;;4941325;28;20055;-60
2023/12/08 11:46:21;;;;;;;30.48;10.05;;;;;;;;;;4956261;28;20061;-62
2023/12/08 11:48:53;;;;;;;20.48;8.38;;;;;;;;;;4953201;28;20047;-65
2023/12/08 11:51:20;;;;;;;31.05;9.95;;;;;;;;;;4945526;28;20050;-61
2023/12/08 11:53:55;;;;;;;25.95;8.80;;;;;;;;;;4941656;28;20055;-62
2023/12/08 11:56:37;;;;;;;25.83;9.10;;;;;;;;;;4940725;28;20094;-64
2023/12/08 11:59:04;;;;;;;25.70;9.20;;;;;;;;;;4966794;28;20129;-64
2023/12/08 12:01:31;;;;;;;26.00;9.55;;;;;;;;;;4936754;28;20124;-63
2023/12/08 12:03:58;;;;;;;27.95;9.40;;;;;;;;;;4958875;28;20153;-63
2023/12/08 12:06:32;;;;;;;27.55;8.82;;;;;;;;;;4962606;28;20151;-62
2023/12/08 12:08:59;;;;;;;22.80;8.35;;;;;;;;;;4955252;28;20062;-63
2023/12/08 12:11:36;;;;;;;25.50;9.40;;;;;;;;;;4910189;28;20051;-64
2023/12/08 12:14:08;;;;;;;24.58;8.80;;;;;;;;;;4974901;28;20195;-66
2023/12/08 12:16:35;;;;;;;25.83;8.75;;;;;;;;;;4959169;28;20073;-64
2023/12/08 12:19:03;;;;;;;26.38;9.43;;;;;;;;;;4972741;28;20051;-62
2023/12/08 12:21:30;;;;;;;26.48;8.48;;;;;;;;;;4969185;28;20146;-63
2023/12/08 12:23:57;;;;;;;25.85;8.75;;;;;;;;;;4971320;28;20062;-63
2023/12/08 12:26:24;;;;;;;22.17;8.30;;;;;;;;;;4955734;28;20059;-61
2023/12/08 12:28:52;;;;;;;22.73;8.07;;;;;;;;;;4954859;28;20066;-63
2023/12/08 12:31:18;;;;;;;24.45;7.70;;;;;;;;;;4941199;28;20063;-62
2023/12/08 12:33:45;;;;;;;20.15;8.68;;;;;;;;;;4923295;28;20070;-62
2023/12/08 12:36:13;;;;;;;22.67;7.50;;;;;;;;;;4965267;28;20087;-63
2023/12/08 12:38:42;;;;;;;31.98;10.20;;;;;;;;;;4956448;28;20059;-60
2023/12/08 12:41:23;;;;;;;22.15;8.43;;;;;;;;;;4953029;28;20059;-61
2023/12/08 12:43:57;;;;;;;19.45;7.60;;;;;;;;;;4958076;28;20110;-61
2023/12/08 12:46:25;;;;;;;19.70;6.82;;;;;;;;;;4963336;28;20051;-62
2023/12/08 12:48:52;;;;;;;18.38;7.15;;;;;;;;;;4975536;28;20051;-62
2023/12/08 12:51:32;;;;;;;26.80;6.93;;;;;;;;;;4971544;28;20117;-61
2023/12/08 12:53:59;;;;;;;14.75;6.10;;;;;;;;;;4949949;28;20065;-61
2023/12/08 12:56:26;;;;;;;22.45;8.32;;;;;;;;;;4946458;28;20051;-60
2023/12/08 12:59:04;;;;;;;24.77;8.55;;;;;;;;;;4946067;28;20125;-60
2023/12/08 13:01:32;;;;;;;20.17;6.25;;;;;;;;;;4968889;28;20054;-62
2023/12/08 13:03:59;;;;;;;17.90;6.13;;;;;;;;;;4936656;28;20062;-62
2023/12/08 13:06:28;;;;;;;25.30;8.65;;;;;;;;;;4959486;28;20079;-61
2023/12/08 13:08:55;;;;;;;27.20;9.80;;;;;;;;;;4968077;28;20086;-63
2023/12/08 13:11:25;;;;;;;25.55;9.07;;;;;;;;;;4958041;28;20055;-63
2023/12/08 13:13:52;;;;;;;47.50;14.35;;;;;;;;;;4970193;28;20063;-60
2023/12/08 13:16:20;;;;;;;24.05;6.85;;;;;;;;;;4962168;28;20071;-61
2023/12/08 13:18:47;;;;;;;21.02;7.30;;;;;;;;;;4946565;29;20121;-61
2023/12/08 13:21:15;;;;;;;22.05;7.20;;;;;;;;;;4957828;28;20055;-60
2023/12/08 13:23:41;;;;;;;20.33;6.63;;;;;;;;;;4957505;28;20109;-60
2023/12/08 13:26:08;;;;;;;20.05;6.28;;;;;;;;;;4957040;28;20161;-62
2023/12/08 13:28:35;;;;;;;23.55;6.55;;;;;;;;;;4961911;28;20054;-61
2023/12/08 13:31:02;;;;;;;21.33;6.45;;;;;;;;;;4941675;28;20100;-63
2023/12/08 13:33:32;;;;;;;20.70;6.75;;;;;;;;;;4971912;28;20047;-62
2023/12/08 13:35:58;;;;;;;20.65;6.30;;;;;;;;;;4937910;28;20070;-59
2023/12/08 13:38:25;;;;;;;22.55;7.70;;;;;;;;;;4973004;28;20138;-61
2023/12/08 13:40:52;;;;;;;29.00;8.60;;;;;;;;;;4976041;28;20062;-60
2023/12/08 13:43:19;;;;;;;22.73;7.28;;;;;;;;;;4937375;28;20054;-62
2023/12/08 13:45:51;;;;;;;24.50;7.10;;;;;;;;;;4970234;28;20049;-59
2023/12/08 13:48:20;;;;;;;21.73;7.50;;;;;;;;;;4960027;28;20055;-62
2023/12/08 13:50:48;;;;;;;25.40;7.22;;;;;;;;;;4981343;28;20050;-61
2023/12/08 13:53:15;;;;;;;22.92;7.15;;;;;;;;;;4963534;28;20142;-61
2023/12/08 13:55:42;;;;;;;27.08;7.95;;;;;;;;;;4968346;28;20047;-59
2023/12/08 13:58:09;;;;;;;22.30;6.93;;;;;;;;;;4941517;28;20122;-62
2023/12/08 14:00:35;;;;;;;30.83;8.70;;;;;;;;;;4960857;28;20047;-61
2023/12/08 14:03:03;;;;;;;30.55;8.15;;;;;;;;;;4947273;28;20070;-60
2023/12/08 14:05:31;;;;;;;30.83;8.55;;;;;;;;;;4959380;28;20058;-61
2023/12/08 14:07:59;;;;;;;22.48;7.47;;;;;;;;;;4925494;28;20109;-61
2023/12/08 14:10:47;;;;;;;23.23;7.85;;;;;;;;;;4942068;28;20119;-62
2023/12/08 14:13:16;;;;;;;27.15;7.57;;;;;;;;;;4895911;28;20063;-62
2023/12/08 14:15:43;;;;;;;27.70;7.28;;;;;;;;;;4939928;28;20150;-62
2023/12/08 14:18:09;;;;;;;21.52;7.05;;;;;;;;;;4927823;29;20063;-63
2023/12/08 14:20:36;;;;;;;26.10;7.32;;;;;;;;;;4945722;28;20066;-63
2023/12/08 14:23:04;;;;;;;28.35;8.40;;;;;;;;;;4941349;28;20065;-63
2023/12/08 14:25:31;;;;;;;27.38;8.40;;;;;;;;;;4949498;28;20102;-61
2023/12/08 14:27:58;;;;;;;22.48;7.93;;;;;;;;;;4951801;28;20064;-62
2023/12/08 14:30:24;;;;;;;23.33;7.57;;;;;;;;;;4923076;29;20059;-62
2023/12/08 14:32:51;;;;;;;36.25;9.77;;;;;;;;;;4899095;28;20054;-63
2023/12/08 14:35:18;;;;;;;26.65;8.48;;;;;;;;;;4931596;28;20169;-62